Time;durP1;ratioP1;P1;durP2;ratioP2;P2;SDS_P1;SDS_P2;PMS_P1;PMS_P2;Temp;Humidity;BMP_temperature;BMP_pressure;BME280_temperature;BME280_humidity;BME280_pressure;Samples;Min_cycle;Max_cycle;Signal;HPM_P1;HPM_P2
2022/08/02 00:01:42;;;;;;;1.60;1.50;;;22.80;61.00;;;;;;950091;149;27355;-76
2022/08/02 00:04:09;;;;;;;1.22;1.20;;;22.80;61.20;;;;;;950778;149;27303;-78
2022/08/02 00:06:54;;;;;;;1.57;1.50;;;22.70;61.30;;;;;;950647;147;27240;-75
2022/08/02 00:09:20;;;;;;;1.50;1.40;;;22.70;61.40;;;;;;947276;149;27336;-77
2022/08/02 00:11:47;;;;;;;1.30;1.20;;;22.70;61.50;;;;;;944516;147;27341;-79
2022/08/02 00:14:13;;;;;;;1.35;1.25;;;22.70;61.70;;;;;;945221;147;27379;-76
2022/08/02 00:16:40;;;;;;;1.62;1.52;;;22.70;61.90;;;;;;944244;149;28915;-76
2022/08/02 00:19:07;;;;;;;1.22;1.22;;;22.70;62.80;;;;;;943405;150;27341;-76
2022/08/02 00:21:33;;;;;;;1.15;1.15;;;22.70;62.20;;;;;;943143;147;27324;-77
2022/08/02 00:24:00;;;;;;;1.87;1.20;;;22.70;62.20;;;;;;944203;147;27421;-79
2022/08/02 00:26:26;;;;;;;1.37;1.37;;;22.70;62.30;;;;;;942262;150;27364;-76
2022/08/02 00:28:53;;;;;;;1.40;1.30;;;22.70;62.40;;;;;;943615;150;28031;-76
2022/08/02 00:31:20;;;;;;;1.40;1.30;;;22.70;63.20;;;;;;943559;147;27327;-76
2022/08/02 00:33:46;;;;;;;1.12;1.12;;;22.70;62.50;;;;;;944291;150;27301;-77
2022/08/02 00:36:13;;;;;;;1.20;1.20;;;22.70;62.50;;;;;;944388;147;27453;-78
2022/08/02 00:38:39;;;;;;;1.50;1.40;;;22.70;62.50;;;;;;943023;147;27426;-79
2022/08/02 00:41:06;;;;;;;1.27;1.20;;;22.70;62.60;;;;;;944555;147;27361;-76
2022/08/02 00:43:33;;;;;;;1.17;1.15;;;22.70;62.60;;;;;;941680;150;27378;-76
2022/08/02 00:45:59;;;;;;;1.47;1.37;;;22.70;62.70;;;;;;944907;147;27415;-77
2022/08/02 00:48:26;;;;;;;1.80;1.70;;;22.60;62.70;;;;;;941932;147;27961;-77
2022/08/02 00:50:52;;;;;;;1.75;1.17;;;22.60;62.80;;;;;;944159;150;27369;-79
2022/08/02 00:53:19;;;;;;;1.67;1.57;;;22.60;62.90;;;;;;944112;147;27420;-76
2022/08/02 00:55:46;;;;;;;1.70;1.60;;;22.50;63.00;;;;;;943725;150;27365;-76
2022/08/02 00:58:12;;;;;;;1.45;1.45;;;22.50;63.20;;;;;;942492;147;27702;-76
2022/08/02 01:00:39;;;;;;;1.77;1.67;;;22.40;63.30;;;;;;942645;147;27887;-78
2022/08/02 01:03:05;;;;;;;1.60;1.50;;;22.40;63.40;;;;;;942368;147;27379;-78
2022/08/02 01:05:32;;;;;;;1.80;1.70;;;22.30;63.50;;;;;;944584;150;27336;-77
2022/08/02 01:07:58;;;;;;;1.90;1.50;;;22.30;63.70;;;;;;945937;149;27328;-76
2022/08/02 01:10:25;;;;;;;2.08;1.42;;;22.20;63.80;;;;;;940199;150;27473;-77
2022/08/02 01:12:52;;;;;;;1.95;1.40;;;22.10;63.90;;;;;;936234;151;27279;-76
2022/08/02 01:15:18;;;;;;;1.85;1.62;;;22.10;64.10;;;;;;936471;151;27251;-78
2022/08/02 01:18:08;;;;;;;2.12;1.80;;;22.00;64.30;;;;;;935225;149;27451;-78
2022/08/02 01:20:48;;;;;;;1.55;1.45;;;22.00;64.60;;;;;;937525;151;27337;-76
2022/08/02 01:23:45;;;;;;;1.42;1.37;;;21.90;64.50;;;;;;938556;151;27237;-76
2022/08/02 01:26:11;;;;;;;1.80;1.70;;;21.80;64.80;;;;;;935910;151;27324;-76
2022/08/02 01:28:50;;;;;;;1.50;1.40;;;21.70;64.60;;;;;;933603;151;27282;-76
2022/08/02 01:31:37;;;;;;;1.70;1.60;;;21.70;65.10;;;;;;934160;151;27292;-77
2022/08/02 01:34:10;;;;;;;1.55;1.45;;;21.60;65.20;;;;;;935298;151;27266;-79
2022/08/02 01:36:39;;;;;;;1.57;1.47;;;21.50;65.40;;;;;;934470;151;27434;-76
2022/08/02 01:39:06;;;;;;;1.90;1.80;;;21.50;65.60;;;;;;935207;151;27423;-76
2022/08/02 01:41:33;;;;;;;1.82;1.72;;;21.40;65.80;;;;;;928247;150;27354;-77
2022/08/02 01:43:59;;;;;;;1.57;1.47;;;21.40;66.20;;;;;;939552;147;27306;-78
2022/08/02 01:46:26;;;;;;;1.40;1.30;;;21.40;66.30;;;;;;940683;147;27323;-79
2022/08/02 01:48:52;;;;;;;2.27;1.70;;;21.30;66.50;;;;;;938475;147;27450;-76
2022/08/02 01:52:20;;;;;;;1.55;1.50;;;21.30;66.80;;;;;;922856;151;27492;-77
2022/08/02 01:53:45;;;;;;;1.32;1.27;;;21.30;66.90;;;;;;932314;149;27447;-78
2022/08/02 01:56:12;;;;;;;1.65;1.55;;;21.30;67.00;;;;;;938921;148;27780;-79
2022/08/02 01:58:39;;;;;;;1.72;1.50;;;21.30;67.10;;;;;;938593;148;27419;-77
2022/08/02 02:01:05;;;;;;;4.75;1.35;;;21.30;67.20;;;;;;939147;149;27832;-76
2022/08/02 02:03:32;;;;;;;1.27;1.27;;;21.30;67.30;;;;;;938831;148;27359;-76
2022/08/02 02:05:58;;;;;;;1.65;1.55;;;21.30;67.50;;;;;;938511;148;27463;-76
2022/08/02 02:08:25;;;;;;;2.22;2.00;;;21.30;67.40;;;;;;939714;148;27330;-76
2022/08/02 02:10:52;;;;;;;1.27;1.25;;;21.30;67.50;;;;;;932266;148;27682;-77
2022/08/02 02:13:18;;;;;;;1.30;1.25;;;21.30;67.50;;;;;;933291;149;28099;-76
2022/08/02 02:15:45;;;;;;;1.57;1.47;;;21.20;67.50;;;;;;925792;150;27388;-76
2022/08/02 02:18:14;;;;;;;1.57;1.55;;;21.20;67.50;;;;;;920112;150;27318;-76
2022/08/02 02:20:41;;;;;;;1.80;1.70;;;21.20;68.20;;;;;;942556;147;27807;-77
2022/08/02 02:23:07;;;;;;;1.77;1.67;;;21.10;67.50;;;;;;941488;146;27324;-77
2022/08/02 02:25:34;;;;;;;1.62;1.52;;;21.10;67.80;;;;;;939852;147;27446;-77
2022/08/02 02:28:00;;;;;;;1.42;1.40;;;21.00;67.90;;;;;;936118;149;27357;-76
2022/08/02 02:30:27;;;;;;;1.60;1.50;;;20.90;67.90;;;;;;932563;149;27371;-76
2022/08/02 02:32:54;;;;;;;1.40;1.30;;;20.90;68.10;;;;;;932698;148;27320;-76
2022/08/02 02:35:20;;;;;;;2.95;1.30;;;20.90;68.30;;;;;;931906;149;27348;-76
2022/08/02 02:37:47;;;;;;;1.42;1.40;;;20.80;68.60;;;;;;927670;150;27741;-78
2022/08/02 02:40:13;;;;;;;1.92;1.57;;;20.70;68.90;;;;;;923666;150;27408;-76
2022/08/02 02:42:40;;;;;;;1.60;1.50;;;20.70;69.20;;;;;;932431;150;27311;-76
2022/08/02 02:45:07;;;;;;;1.60;1.50;;;20.60;69.20;;;;;;919767;150;27415;-76
2022/08/02 02:47:33;;;;;;;1.40;1.35;;;20.60;70.20;;;;;;931657;149;27739;-76
2022/08/02 02:50:00;;;;;;;1.45;1.37;;;20.60;69.60;;;;;;932520;149;27330;-77
2022/08/02 02:52:27;;;;;;;1.75;1.40;;;20.60;69.80;;;;;;924403;150;27541;-77
2022/08/02 02:54:53;;;;;;;2.55;1.67;;;20.50;69.90;;;;;;927713;150;28156;-76
2022/08/02 02:57:19;;;;;;;1.92;1.65;;;20.50;70.00;;;;;;926113;150;27469;-78
2022/08/02 02:59:46;;;;;;;1.80;1.70;;;20.50;70.30;;;;;;927380;149;27367;-76
2022/08/02 03:02:13;;;;;;;2.37;1.80;;;20.40;70.40;;;;;;926737;150;27347;-76
2022/08/02 03:04:39;;;;;;;2.12;1.90;;;20.40;70.50;;;;;;945081;147;27434;-76
2022/08/02 03:07:06;;;;;;;1.70;1.60;;;20.40;70.60;;;;;;926367;150;27366;-76
2022/08/02 03:09:33;;;;;;;1.95;1.85;;;20.30;70.70;;;;;;924696;150;27453;-76
2022/08/02 03:11:59;;;;;;;2.00;1.90;;;20.30;70.90;;;;;;922009;149;27401;-76
2022/08/02 03:14:26;;;;;;;2.30;2.10;;;20.20;71.10;;;;;;937004;149;27285;-76
2022/08/02 03:16:52;;;;;;;2.15;2.05;;;20.20;71.40;;;;;;938161;149;27346;-78
2022/08/02 03:19:19;;;;;;;2.47;2.27;;;20.20;71.60;;;;;;927331;150;27458;-78
2022/08/02 03:21:45;;;;;;;1.98;1.87;;;20.20;71.90;;;;;;943725;147;28351;-76
2022/08/02 03:24:12;;;;;;;2.15;2.05;;;20.20;72.10;;;;;;938097;149;27778;-76
2022/08/02 03:26:39;;;;;;;2.02;1.80;;;20.20;72.40;;;;;;939864;151;27335;-76
2022/08/02 03:29:05;;;;;;;2.10;1.80;;;20.20;72.70;;;;;;937776;151;27431;-77
2022/08/02 03:31:32;;;;;;;2.40;2.20;;;20.20;72.70;;;;;;937479;151;27472;-79
2022/08/02 03:33:58;;;;;;;1.90;1.80;;;20.20;73.00;;;;;;939237;149;27370;-76
2022/08/02 03:36:25;;;;;;;2.00;1.90;;;20.30;73.00;;;;;;952383;146;27340;-76
2022/08/02 03:38:52;;;;;;;1.70;1.60;;;20.30;73.00;;;;;;935697;149;27298;-76
2022/08/02 03:41:18;;;;;;;2.10;1.85;;;20.30;73.00;;;;;;936211;152;27364;-76
2022/08/02 03:43:45;;;;;;;1.77;1.67;;;20.30;73.10;;;;;;931042;149;27401;-78
2022/08/02 03:46:11;;;;;;;2.17;1.98;;;20.30;73.10;;;;;;938790;150;27349;-77
2022/08/02 03:48:38;;;;;;;2.45;1.92;;;20.30;73.20;;;;;;939398;152;27262;-78
2022/08/02 03:51:05;;;;;;;1.82;1.72;;;20.30;73.30;;;;;;931246;149;27355;-78
2022/08/02 03:53:31;;;;;;;1.50;1.50;;;20.30;73.30;;;;;;954090;146;27331;-76
2022/08/02 03:55:58;;;;;;;2.40;1.80;;;20.20;73.30;;;;;;953954;149;27336;-78
2022/08/02 03:58:24;;;;;;;1.72;1.62;;;20.20;73.50;;;;;;929734;149;27377;-76
2022/08/02 04:00:54;;;;;;;1.85;1.57;;;20.20;73.60;;;;;;951584;149;27352;-78
2022/08/02 04:03:20;;;;;;;2.08;1.87;;;20.20;73.80;;;;;;951632;147;27313;-76
2022/08/02 04:05:47;;;;;;;2.02;1.85;;;20.10;73.80;;;;;;928484;149;27949;-76
2022/08/02 04:08:13;;;;;;;1.92;1.70;;;20.10;74.10;;;;;;952859;147;27301;-77
2022/08/02 04:13:25;;;;;;;1.80;1.70;;;20.00;75.20;;;;;;922823;149;27511;-76
2022/08/02 04:15:51;;;;;;;1.90;1.80;;;20.00;74.50;;;;;;941795;147;27425;-76
2022/08/02 04:18:18;;;;;;;2.15;1.98;;;20.10;74.90;;;;;;919824;150;28088;-76
2022/08/02 04:20:44;;;;;;;2.10;1.87;;;20.00;74.90;;;;;;944414;147;27326;-76
2022/08/02 04:23:11;;;;;;;1.70;1.60;;;20.00;75.20;;;;;;938008;148;27304;-78
2022/08/02 04:25:37;;;;;;;1.90;1.80;;;20.00;75.40;;;;;;950713;149;27368;-77
2022/08/02 04:28:04;;;;;;;1.90;1.80;;;20.00;75.70;;;;;;951076;147;27313;-77
2022/08/02 04:30:31;;;;;;;2.05;1.90;;;20.10;75.80;;;;;;932847;149;27763;-77
2022/08/02 04:32:57;;;;;;;2.40;2.02;;;20.00;75.80;;;;;;924761;150;28249;-77
2022/08/02 04:35:24;;;;;;;1.92;1.82;;;20.10;76.10;;;;;;919346;150;27437;-78
2022/08/02 04:37:50;;;;;;;1.70;1.60;;;20.10;76.20;;;;;;943292;147;27454;-77
2022/08/02 04:40:17;;;;;;;1.62;1.57;;;20.10;77.10;;;;;;942624;147;27314;-77
2022/08/02 04:42:44;;;;;;;2.10;2.00;;;20.10;76.40;;;;;;921302;150;27286;-76
2022/08/02 04:45:10;;;;;;;2.47;2.27;;;20.20;76.70;;;;;;942023;147;27336;-78
2022/08/02 04:47:38;;;;;;;2.00;1.90;;;20.20;76.70;;;;;;925924;150;27326;-78
2022/08/02 04:50:03;;;;;;;2.65;1.90;;;20.20;76.90;;;;;;926073;150;27363;-76
2022/08/02 04:52:30;;;;;;;2.77;2.10;;;20.30;77.10;;;;;;919292;150;27394;-76
2022/08/02 04:54:57;;;;;;;2.27;2.08;;;20.30;77.10;;;;;;939985;148;27328;-76
2022/08/02 05:00:08;;;;;;;2.65;2.20;;;20.40;77.00;;;;;;943347;148;27393;-76
2022/08/02 05:02:35;;;;;;;2.80;2.15;;;20.50;77.10;;;;;;940962;148;27370;-77
2022/08/02 05:05:01;;;;;;;2.80;2.60;;;20.50;77.20;;;;;;940557;148;27476;-76
2022/08/02 05:07:28;;;;;;;2.42;2.25;;;20.60;77.40;;;;;;939641;148;28322;-76
2022/08/02 05:09:54;;;;;;;3.33;2.05;;;20.70;78.10;;;;;;939677;148;27447;-76
2022/08/02 05:12:21;;;;;;;2.33;2.12;;;20.80;79.30;;;;;;941606;147;27380;-76
2022/08/02 05:14:48;;;;;;;3.30;2.20;;;21.10;81.20;;;;;;929202;149;27419;-77
2022/08/02 05:17:14;;;;;;;1.90;1.80;;;21.50;83.10;;;;;;938032;149;27455;-78
2022/08/02 05:19:41;;;;;;;1.95;1.77;;;22.00;84.80;;;;;;942069;146;27323;-76
2022/08/02 05:22:07;;;;;;;2.90;1.80;;;22.70;85.30;;;;;;937838;146;27458;-77
2022/08/02 05:24:34;;;;;;;1.75;1.62;;;23.50;84.60;;;;;;925063;150;27470;-76
2022/08/02 05:27:01;;;;;;;1.92;1.82;;;24.30;83.20;;;;;;939557;146;27265;-77
2022/08/02 05:29:27;;;;;;;1.70;1.60;;;25.20;81.60;;;;;;938845;146;27335;-79
2022/08/02 05:31:54;;;;;;;1.80;1.70;;;26.00;78.90;;;;;;940563;146;27976;-79
2022/08/02 05:34:20;;;;;;;2.50;2.30;;;26.80;75.80;;;;;;923869;149;27440;-78
2022/08/02 05:36:47;;;;;;;2.30;2.10;;;27.40;71.90;;;;;;925067;149;27428;-78
2022/08/02 05:39:13;;;;;;;2.15;1.95;;;28.00;68.70;;;;;;929897;149;27405;-78
2022/08/02 05:41:40;;;;;;;1.87;1.77;;;28.40;66.30;;;;;;926546;149;27343;-79
2022/08/02 05:44:07;;;;;;;2.77;2.08;;;28.70;64.50;;;;;;926042;149;27367;-77
2022/08/02 05:46:33;;;;;;;1.65;1.42;;;28.90;62.90;;;;;;940255;146;27455;-77
2022/08/02 05:49:00;;;;;;;1.92;1.70;;;29.10;62.10;;;;;;942065;146;27355;-77
2022/08/02 05:51:39;;;;;;;3.08;1.85;;;29.20;61.50;;;;;;941742;146;27370;-78
2022/08/02 05:54:30;;;;;;;1.85;1.75;;;29.30;61.30;;;;;;925336;149;27401;-78
2022/08/02 05:57:05;;;;;;;2.42;2.22;;;29.50;61.10;;;;;;926862;148;27363;-78
2022/08/02 05:59:44;;;;;;;2.12;1.82;;;29.70;60.80;;;;;;935614;148;27393;-77
2022/08/02 06:02:19;;;;;;;2.20;2.10;;;29.90;60.50;;;;;;936935;149;27389;-77
2022/08/02 06:04:52;;;;;;;1.92;1.80;;;30.20;60.20;;;;;;936946;148;27341;-77
2022/08/02 06:07:19;;;;;;;1.57;1.47;;;30.60;59.90;;;;;;938702;148;27355;-78
2022/08/02 06:09:45;;;;;;;1.87;1.50;;;31.00;59.60;;;;;;936592;148;27338;-78
2022/08/02 06:12:12;;;;;;;4.05;1.52;;;31.50;59.40;;;;;;939169;148;27347;-79
2022/08/02 06:14:39;;;;;;;1.60;1.50;;;32.00;58.90;;;;;;939368;148;27554;-77
2022/08/02 06:17:05;;;;;;;1.95;1.75;;;32.60;58.40;;;;;;937159;149;27438;-78
2022/08/02 06:19:32;;;;;;;1.72;1.55;;;33.20;58.00;;;;;;941214;148;26256;-78
2022/08/02 06:22:13;;;;;;;3.25;1.60;;;33.90;57.20;;;;;;936402;149;26333;-78
2022/08/02 06:24:25;;;;;;;1.47;1.45;;;34.70;55.70;;;;;;953000;145;26218;-78
2022/08/02 06:26:53;;;;;;;1.67;1.57;;;35.40;55.10;;;;;;937866;148;26306;-78
2022/08/02 06:29:18;;;;;;;2.42;1.85;;;36.10;53.90;;;;;;931776;149;26281;-78
2022/08/02 06:31:45;;;;;;;1.92;1.70;;;36.80;52.80;;;;;;954406;145;26180;-78
2022/08/02 06:34:11;;;;;;;2.72;1.90;;;37.40;51.80;;;;;;937009;148;26302;-78
2022/08/02 06:36:38;;;;;;;1.77;1.67;;;38.00;50.80;;;;;;938846;148;26224;-79
2022/08/02 06:39:04;;;;;;;1.70;1.60;;;38.60;49.80;;;;;;951370;145;26192;-79
2022/08/02 06:41:31;;;;;;;1.42;1.22;;;39.10;48.80;;;;;;936813;148;27411;-78
2022/08/02 06:44:00;;;;;;;1.92;1.35;;;39.60;47.80;;;;;;953545;145;26785;-79
2022/08/02 06:46:27;;;;;;;0.60;0.60;;;40.10;46.90;;;;;;936077;148;26256;-79
2022/08/02 06:48:54;;;;;;;1.00;1.00;;;40.60;46.20;;;;;;953745;145;26260;-78
2022/08/02 06:51:20;;;;;;;1.15;1.02;;;41.00;45.20;;;;;;955348;146;26251;-79
2022/08/02 06:53:47;;;;;;;1.72;0.80;;;41.50;44.40;;;;;;956509;146;26323;-79
2022/08/02 06:56:13;;;;;;;0.90;0.80;;;41.80;43.40;;;;;;956086;146;26271;-79
2022/08/02 06:58:40;;;;;;;0.60;0.60;;;42.20;42.70;;;;;;955260;146;26212;-80
2022/08/02 07:01:06;;;;;;;0.93;0.93;;;42.40;41.90;;;;;;954928;146;26231;-79
2022/08/02 07:03:33;;;;;;;0.72;0.72;;;42.60;40.90;;;;;;953596;146;26320;-80
2022/08/02 07:06:00;;;;;;;0.65;0.65;;;42.80;40.10;;;;;;941640;148;26351;-79
2022/08/02 07:08:27;;;;;;;0.62;0.62;;;42.90;39.70;;;;;;938564;149;27857;-79
2022/08/02 07:10:55;;;;;;;0.70;0.70;;;43.10;39.60;;;;;;936232;149;26274;-79
2022/08/02 07:13:19;;;;;;;0.88;0.80;;;43.20;39.10;;;;;;954745;146;26232;-79
2022/08/02 07:15:46;;;;;;;0.68;0.65;;;43.40;38.80;;;;;;921475;150;26456;-80
2022/08/02 07:18:14;;;;;;;0.78;0.78;;;43.70;38.50;;;;;;942940;147;26330;-80
2022/08/02 07:20:39;;;;;;;0.70;0.70;;;43.90;38.10;;;;;;933782;150;26279;-79
2022/08/02 07:23:06;;;;;;;1.12;0.80;;;44.20;38.00;;;;;;927152;150;26300;-79
2022/08/02 07:27:53;;;;;;;0.65;0.65;;;44.50;37.20;;;;;;971739;144;38295;-78
2022/08/02 07:30:20;;;;;;;0.53;0.50;;;44.80;35.80;;;;;;952520;148;26243;-79
2022/08/02 07:32:47;;;;;;;0.65;0.57;;;44.90;35.40;;;;;;955809;147;27135;-79
2022/08/02 07:35:13;;;;;;;0.60;0.60;;;45.00;35.00;;;;;;951598;149;26247;-78
2022/08/02 07:37:41;;;;;;;0.75;0.75;;;45.10;35.20;;;;;;953120;147;26313;-79
2022/08/02 07:40:06;;;;;;;0.60;0.60;;;45.20;34.70;;;;;;954570;148;26243;-79
2022/08/02 07:42:33;;;;;;;0.80;0.80;;;45.50;34.40;;;;;;950969;148;26220;-79
2022/08/02 07:45:00;;;;;;;0.47;0.47;;;45.60;34.00;;;;;;953579;148;26676;-79
2022/08/02 07:47:26;;;;;;;1.25;0.80;;;45.70;33.50;;;;;;955790;149;26247;-79
2022/08/02 07:49:53;;;;;;;1.22;0.70;;;45.70;33.40;;;;;;953076;149;26177;-79
2022/08/02 07:52:19;;;;;;;1.85;0.80;;;45.90;32.90;;;;;;944753;149;26267;-79
2022/08/02 07:54:46;;;;;;;0.90;0.55;;;46.00;32.60;;;;;;940984;149;26193;-78
2022/08/02 07:57:12;;;;;;;0.72;0.72;;;46.20;32.60;;;;;;938029;149;26228;-78
2022/08/02 07:59:39;;;;;;;0.60;0.50;;;46.40;32.40;;;;;;941541;149;26300;-79
2022/08/02 08:02:06;;;;;;;0.60;0.60;;;46.60;32.10;;;;;;940201;149;26693;-79
2022/08/02 08:04:32;;;;;;;1.37;0.57;;;46.90;31.40;;;;;;938231;149;26274;-78
2022/08/02 08:06:59;;;;;;;0.60;0.60;;;47.10;31.00;;;;;;938318;149;26248;-78
2022/08/02 08:09:25;;;;;;;0.68;0.65;;;47.40;30.70;;;;;;940796;149;26241;-78
2022/08/02 08:11:52;;;;;;;0.62;0.50;;;47.60;30.40;;;;;;940163;149;26422;-78
2022/08/02 08:14:19;;;;;;;0.50;0.50;;;47.90;30.10;;;;;;939283;149;26810;-78
2022/08/02 08:16:45;;;;;;;0.68;0.60;;;48.10;29.60;;;;;;937662;149;26537;-78
2022/08/02 08:19:12;;;;;;;0.85;0.70;;;48.40;29.40;;;;;;941205;149;26205;-78
2022/08/02 08:21:38;;;;;;;1.00;0.82;;;48.50;29.00;;;;;;940605;149;26664;-78
2022/08/02 08:24:05;;;;;;;1.47;0.62;;;48.70;28.80;;;;;;938823;149;26333;-78
2022/08/02 08:26:32;;;;;;;0.65;0.60;;;48.70;28.50;;;;;;940056;151;26445;-78
2022/08/02 08:28:59;;;;;;;0.68;0.68;;;48.90;28.30;;;;;;941789;148;26656;-78
2022/08/02 08:31:25;;;;;;;0.50;0.50;;;49.10;28.10;;;;;;939154;151;26274;-78
2022/08/02 08:33:51;;;;;;;0.60;0.33;;;49.20;28.00;;;;;;943626;148;26269;-78
2022/08/02 08:36:20;;;;;;;0.72;0.62;;;49.30;27.70;;;;;;940851;148;26215;-78
2022/08/02 08:38:44;;;;;;;0.70;0.70;;;49.30;27.40;;;;;;942009;148;26277;-78
2022/08/02 08:41:11;;;;;;;0.75;0.55;;;49.50;27.00;;;;;;938868;151;26281;-78
2022/08/02 08:43:38;;;;;;;0.60;0.60;;;49.50;26.90;;;;;;940446;148;26332;-78
2022/08/02 08:46:04;;;;;;;0.40;0.40;;;49.30;26.70;;;;;;941239;148;26341;-78
2022/08/02 08:48:31;;;;;;;0.75;0.62;;;49.30;26.40;;;;;;941401;151;26250;-78
2022/08/02 08:51:00;;;;;;;0.40;0.40;;;49.30;26.30;;;;;;941276;148;26300;-78
2022/08/02 08:53:27;;;;;;;0.72;0.40;;;49.10;25.90;;;;;;941223;148;26361;-78
2022/08/02 08:55:56;;;;;;;0.40;0.40;;;49.10;26.00;;;;;;939865;151;26215;-78
2022/08/02 08:58:20;;;;;;;0.70;0.65;;;48.90;25.90;;;;;;941698;148;26226;-78
2022/08/02 09:00:46;;;;;;;0.57;0.55;;;48.70;25.80;;;;;;940045;151;26238;-78
2022/08/02 09:03:13;;;;;;;0.42;0.42;;;48.60;25.90;;;;;;940830;148;26294;-78
2022/08/02 09:05:40;;;;;;;0.57;0.57;;;48.40;25.90;;;;;;941005;148;26284;-78
2022/08/02 09:08:06;;;;;;;0.78;0.62;;;48.30;25.80;;;;;;943315;148;26310;-78
2022/08/02 09:10:39;;;;;;;0.53;0.53;;;48.20;26.00;;;;;;941407;148;26233;-78
2022/08/02 09:13:17;;;;;;;0.50;0.50;;;48.00;25.80;;;;;;942453;151;26252;-78
2022/08/02 09:15:43;;;;;;;0.70;0.70;;;48.00;25.30;;;;;;939695;148;26402;-78
2022/08/02 09:18:10;;;;;;;0.50;0.47;;;47.80;25.40;;;;;;941007;148;26291;-78
2022/08/02 09:20:56;;;;;;;0.40;0.40;;;47.60;25.30;;;;;;941593;151;26249;-78
2022/08/02 09:23:21;;;;;;;0.55;0.55;;;47.50;25.60;;;;;;941356;151;26327;-78
2022/08/02 09:25:56;;;;;;;0.47;0.42;;;47.50;25.50;;;;;;940151;151;26253;-78
2022/08/02 09:28:29;;;;;;;0.50;0.50;;;47.50;25.40;;;;;;940785;148;26380;-78
2022/08/02 09:30:56;;;;;;;0.50;0.50;;;47.50;25.30;;;;;;942014;148;26353;-78
2022/08/02 09:33:25;;;;;;;0.57;0.57;;;47.50;25.10;;;;;;940941;148;26296;-78
2022/08/02 09:35:51;;;;;;;0.60;0.60;;;47.50;25.00;;;;;;940915;148;26313;-78
2022/08/02 09:38:18;;;;;;;0.40;0.40;;;47.50;24.90;;;;;;941559;148;26669;-78
2022/08/02 09:40:45;;;;;;;0.53;0.53;;;47.60;24.80;;;;;;943522;148;26851;-77
2022/08/02 09:43:11;;;;;;;0.55;0.55;;;47.60;24.80;;;;;;941217;148;26309;-78
2022/08/02 09:45:38;;;;;;;0.75;0.45;;;47.70;24.70;;;;;;940259;148;26255;-78
2022/08/02 09:48:07;;;;;;;0.60;0.60;;;47.80;24.70;;;;;;942266;148;26221;-78
2022/08/02 09:50:37;;;;;;;0.50;0.50;;;47.80;24.60;;;;;;939530;148;26259;-77
2022/08/02 09:53:03;;;;;;;0.68;0.45;;;47.80;24.40;;;;;;943739;148;26722;-78
2022/08/02 09:55:30;;;;;;;0.62;0.50;;;47.60;24.00;;;;;;944350;148;26350;-78
2022/08/02 09:57:56;;;;;;;0.37;0.37;;;47.40;23.80;;;;;;943029;148;26617;-78
2022/08/02 10:00:23;;;;;;;0.82;0.62;;;47.20;23.80;;;;;;942066;148;26313;-78
2022/08/02 10:03:10;;;;;;;1.12;0.47;;;46.90;23.80;;;;;;940660;148;28318;-77
2022/08/02 10:05:46;;;;;;;2.40;0.75;;;46.50;23.70;;;;;;942583;148;26268;-78
2022/08/02 10:08:12;;;;;;;0.62;0.50;;;46.10;23.80;;;;;;940508;151;26362;-78
2022/08/02 10:10:39;;;;;;;0.60;0.60;;;45.70;23.80;;;;;;940065;148;26239;-78
2022/08/02 10:13:05;;;;;;;0.70;0.70;;;45.20;23.90;;;;;;941319;148;26248;-78
2022/08/02 10:15:32;;;;;;;1.07;0.60;;;44.80;24.30;;;;;;941446;150;26255;-78
2022/08/02 10:17:59;;;;;;;0.68;0.68;;;44.30;24.20;;;;;;941470;148;26283;-78
2022/08/02 10:20:25;;;;;;;0.60;0.53;;;43.90;24.30;;;;;;943278;148;26652;-78
2022/08/02 10:22:52;;;;;;;0.80;0.72;;;43.50;24.60;;;;;;940339;150;26209;-78
2022/08/02 10:25:18;;;;;;;0.57;0.57;;;43.10;24.50;;;;;;941732;148;27439;-79
2022/08/02 10:27:45;;;;;;;1.30;0.70;;;42.80;24.60;;;;;;944133;148;26310;-78
2022/08/02 10:30:12;;;;;;;0.60;0.60;;;42.30;24.50;;;;;;939288;148;26640;-78
2022/08/02 10:32:41;;;;;;;0.70;0.70;;;42.00;24.60;;;;;;940555;148;26748;-78
2022/08/02 10:35:11;;;;;;;0.57;0.55;;;41.50;24.80;;;;;;938490;150;26341;-78
2022/08/02 10:37:38;;;;;;;1.30;0.80;;;41.10;25.00;;;;;;939893;148;27958;-78
2022/08/02 10:40:04;;;;;;;1.15;0.50;;;40.70;25.20;;;;;;941520;150;26356;-78
2022/08/02 10:42:42;;;;;;;0.53;0.53;;;40.20;25.40;;;;;;936928;149;27470;-78
2022/08/02 10:45:09;;;;;;;0.70;0.62;;;39.80;25.50;;;;;;950763;146;27346;-78
2022/08/02 10:47:35;;;;;;;0.60;0.60;;;39.30;25.80;;;;;;951778;146;26306;-78
2022/08/02 10:50:02;;;;;;;0.57;0.57;;;38.90;26.00;;;;;;953885;146;27410;-78
2022/08/02 10:52:29;;;;;;;0.90;0.90;;;38.50;26.20;;;;;;954962;146;27402;-78
2022/08/02 10:55:02;;;;;;;0.60;0.60;;;38.10;26.30;;;;;;953316;146;27470;-78
2022/08/02 10:57:28;;;;;;;0.70;0.70;;;37.80;26.60;;;;;;951685;146;27327;-78
2022/08/02 10:59:54;;;;;;;0.65;0.65;;;37.50;26.80;;;;;;951797;146;27307;-78
2022/08/02 11:02:42;;;;;;;0.90;0.90;;;37.20;26.40;;;;;;953289;146;27391;-78
2022/08/02 11:05:12;;;;;;;0.90;0.78;;;36.90;27.20;;;;;;953727;146;27447;-78
2022/08/02 11:07:39;;;;;;;0.75;0.75;;;36.60;27.30;;;;;;950524;146;27448;-78
2022/08/02 11:10:27;;;;;;;0.80;0.80;;;36.40;27.60;;;;;;934989;149;27516;-78
2022/08/02 11:13:02;;;;;;;0.57;0.57;;;36.10;27.80;;;;;;937992;149;27398;-78
2022/08/02 11:15:29;;;;;;;1.20;0.70;;;35.90;28.00;;;;;;936937;150;27284;-78
2022/08/02 11:17:55;;;;;;;0.93;0.93;;;35.70;28.00;;;;;;941965;151;27337;-78
2022/08/02 11:20:22;;;;;;;1.65;0.95;;;35.50;28.10;;;;;;940643;150;27641;-78
2022/08/02 11:22:48;;;;;;;2.17;1.00;;;35.40;28.20;;;;;;939759;148;27813;-78
2022/08/02 11:25:21;;;;;;;0.78;0.78;;;35.20;28.40;;;;;;942396;148;27762;-78
2022/08/02 11:27:48;;;;;;;0.88;0.80;;;35.20;28.70;;;;;;942378;148;27397;-78
2022/08/02 11:30:14;;;;;;;2.05;0.90;;;35.10;29.20;;;;;;945542;150;27427;-78
2022/08/02 11:32:41;;;;;;;0.60;0.60;;;35.00;28.90;;;;;;944777;148;27325;-78
2022/08/02 11:35:07;;;;;;;0.82;0.82;;;34.90;28.80;;;;;;946080;148;27420;-78
2022/08/02 11:37:37;;;;;;;0.75;0.75;;;34.90;28.90;;;;;;945017;148;27323;-78
2022/08/02 11:40:03;;;;;;;0.78;0.78;;;34.80;28.80;;;;;;946217;150;27317;-78
2022/08/02 11:42:33;;;;;;;0.90;0.90;;;34.80;28.90;;;;;;944299;148;27291;-78
2022/08/02 11:45:00;;;;;;;0.80;0.80;;;34.70;28.80;;;;;;945479;149;27303;-78
2022/08/02 11:47:26;;;;;;;1.25;0.95;;;34.60;29.00;;;;;;945529;148;27314;-78
2022/08/02 11:49:53;;;;;;;1.05;1.05;;;34.50;29.00;;;;;;945667;150;27360;-78
2022/08/02 11:52:19;;;;;;;0.60;0.60;;;34.50;29.10;;;;;;945449;150;27382;-78
2022/08/02 11:54:46;;;;;;;1.00;0.90;;;34.50;29.30;;;;;;945099;149;27276;-78
2022/08/02 11:57:15;;;;;;;1.15;0.80;;;34.50;29.40;;;;;;946721;149;27443;-78
2022/08/02 11:59:42;;;;;;;0.90;0.90;;;34.50;29.40;;;;;;946359;148;27343;-78
2022/08/02 12:02:08;;;;;;;0.70;0.70;;;34.50;29.40;;;;;;943663;150;27340;-78
2022/08/02 12:04:35;;;;;;;0.90;0.90;;;34.50;29.30;;;;;;947051;150;27919;-78
2022/08/02 12:07:01;;;;;;;0.80;0.80;;;34.60;29.40;;;;;;946289;147;27331;-78
2022/08/02 12:09:28;;;;;;;0.80;0.80;;;34.50;29.40;;;;;;942529;148;27304;-78
2022/08/02 12:11:55;;;;;;;1.07;0.62;;;34.60;29.50;;;;;;943961;148;27316;-78
2022/08/02 12:14:21;;;;;;;1.00;0.82;;;34.60;29.50;;;;;;944160;150;27409;-78
2022/08/02 12:19:33;;;;;;;0.72;0.72;;;34.50;29.50;;;;;;944460;147;27347;-78
2022/08/02 12:22:08;;;;;;;0.98;0.82;;;34.50;29.70;;;;;;945614;148;27356;-78
2022/08/02 12:24:34;;;;;;;1.00;1.00;;;34.60;29.80;;;;;;946525;149;27259;-78
2022/08/02 12:27:01;;;;;;;0.90;0.90;;;34.50;29.70;;;;;;945028;148;27323;-78
2022/08/02 12:29:30;;;;;;;1.05;0.95;;;34.50;29.60;;;;;;946067;147;27739;-78
2022/08/02 12:31:57;;;;;;;1.00;1.00;;;34.50;29.50;;;;;;945642;147;27321;-78
2022/08/02 12:34:24;;;;;;;1.05;0.90;;;34.40;29.40;;;;;;946813;148;27342;-78
2022/08/02 12:37:05;;;;;;;0.60;0.60;;;34.40;29.40;;;;;;944975;148;27276;-78
2022/08/02 12:39:34;;;;;;;0.75;0.70;;;34.20;29.40;;;;;;945120;149;27412;-78
2022/08/02 12:42:01;;;;;;;1.10;1.00;;;34.20;29.40;;;;;;945163;147;27389;-78
2022/08/02 12:44:28;;;;;;;1.45;0.80;;;34.10;29.50;;;;;;944578;150;27657;-78
2022/08/02 12:47:06;;;;;;;1.12;0.80;;;34.10;29.90;;;;;;946236;150;27344;-77
2022/08/02 12:49:33;;;;;;;0.60;0.60;;;34.10;30.00;;;;;;944715;147;27445;-77
2022/08/02 12:51:59;;;;;;;1.15;0.88;;;34.10;29.90;;;;;;945014;148;27400;-78
2022/08/02 12:54:26;;;;;;;0.75;0.75;;;34.00;29.70;;;;;;945371;148;27366;-78
2022/08/02 12:56:53;;;;;;;1.27;0.72;;;34.00;29.80;;;;;;943195;150;27806;-78
2022/08/02 12:59:34;;;;;;;0.57;0.57;;;34.00;29.90;;;;;;946109;147;28059;-78
2022/08/02 13:02:01;;;;;;;0.80;0.80;;;34.10;30.00;;;;;;945412;150;27402;-78